createdAt,value
2018-08-03T00:00:40.357Z,28.70
2018-08-03T00:03:21.487Z,28.60
2018-08-03T00:06:03.207Z,28.60
2018-08-03T00:08:45.017Z,28.60
2018-08-03T00:11:26.729Z,28.60
2018-08-03T00:14:08.571Z,28.60
2018-08-03T00:16:50.873Z,28.60
2018-08-03T00:19:31.967Z,28.70
2018-08-03T00:22:13.401Z,28.60
2018-08-03T00:24:55.163Z,28.60
2018-08-03T00:27:36.853Z,28.60
2018-08-03T00:30:19.319Z,28.60
2018-08-03T00:33:00.299Z,28.60
2018-08-03T00:35:42.007Z,28.60
2018-08-03T00:38:22.719Z,28.60
2018-08-03T00:41:03.372Z,28.60
2018-08-03T00:43:44.201Z,28.60
2018-08-03T00:46:25.733Z,28.60
2018-08-03T00:49:06.437Z,28.60
2018-08-03T00:51:48.152Z,28.50
2018-08-03T00:54:29.809Z,28.50
2018-08-03T00:57:10.738Z,28.40
2018-08-03T00:59:52.521Z,28.40
2018-08-03T01:02:34.129Z,28.30
2018-08-03T01:05:15.544Z,28.30
2018-08-03T01:07:56.354Z,28.20
2018-08-03T01:10:38.114Z,28.20
2018-08-03T01:16:01.500Z,28.10
2018-08-03T01:18:44.209Z,28.10
2018-08-03T01:21:25.955Z,28.00
2018-08-03T01:24:07.541Z,28.00
2018-08-03T01:26:49.176Z,27.90
2018-08-03T01:29:30.107Z,27.90
2018-08-03T01:32:10.831Z,27.90
2018-08-03T01:34:51.701Z,27.90
2018-08-03T01:37:33.262Z,27.80
2018-08-03T01:40:14.932Z,27.70
2018-08-03T01:42:56.641Z,27.70
2018-08-03T01:45:37.850Z,27.70
2018-08-03T01:48:19.582Z,27.70
2018-08-03T01:51:01.175Z,27.60
2018-08-03T01:53:42.297Z,27.60
2018-08-03T01:56:23.614Z,27.60
2018-08-03T01:59:05.403Z,27.60
2018-08-03T02:01:46.863Z,27.50
2018-08-03T02:04:27.701Z,27.50
2018-08-03T02:07:09.175Z,27.50
2018-08-03T02:09:50.882Z,27.50
2018-08-03T02:12:32.308Z,27.50
2018-08-03T02:15:13.897Z,27.50
2018-08-03T02:17:55.751Z,27.50
2018-08-03T02:20:36.855Z,27.50
2018-08-03T02:23:18.462Z,27.50
2018-08-03T02:25:59.833Z,27.50
2018-08-03T02:28:40.873Z,27.50
2018-08-03T02:31:22.316Z,27.40
2018-08-03T02:34:04.099Z,27.40
2018-08-03T02:36:45.724Z,27.40
2018-08-03T02:39:27.476Z,27.40
2018-08-03T02:42:08.347Z,27.30
2018-08-03T02:44:49.850Z,27.30
2018-08-03T02:47:30.724Z,27.30
2018-08-03T02:50:11.484Z,27.20
2018-08-03T02:52:53.606Z,27.20
2018-08-03T02:55:34.863Z,27.20
2018-08-03T02:58:16.437Z,27.20
2018-08-03T03:00:57.262Z,27.20
2018-08-03T03:03:38.296Z,27.20
2018-08-03T03:06:20.061Z,27.10
2018-08-03T03:09:01.003Z,27.10
2018-08-03T03:11:41.899Z,27.10
2018-08-03T03:14:23.608Z,27.10
2018-08-03T03:17:05.384Z,27.10
2018-08-03T03:19:47.041Z,27.10
2018-08-03T03:22:28.752Z,27.10
2018-08-03T03:25:10.286Z,27.10
2018-08-03T03:27:51.610Z,27.00
2018-08-03T03:30:32.552Z,27.00
2018-08-03T03:33:14.952Z,27.00
2018-08-03T03:35:56.693Z,27.00
2018-08-03T03:38:38.031Z,27.00
2018-08-03T03:41:19.525Z,27.00
2018-08-03T03:44:01.205Z,27.00
2018-08-03T03:46:42.581Z,27.00
2018-08-03T03:49:24.654Z,26.90
2018-08-03T03:52:06.320Z,26.90
2018-08-03T03:54:48.069Z,27.00
2018-08-03T03:57:28.795Z,26.90
2018-08-03T04:05:34.418Z,26.90
2018-08-03T04:08:17.969Z,26.80
2018-08-03T04:10:59.289Z,26.80
2018-08-03T04:13:40.956Z,26.80
2018-08-03T04:16:22.619Z,26.80
2018-08-03T04:19:03.438Z,26.80
2018-08-03T04:21:45.141Z,26.80
2018-08-03T04:24:26.996Z,26.80
2018-08-03T04:27:08.439Z,26.80
2018-08-03T04:29:50.047Z,26.80
2018-08-03T04:32:31.746Z,26.80
2018-08-03T04:35:13.531Z,26.70
2018-08-03T04:37:55.153Z,26.80
2018-08-03T04:40:35.957Z,26.70
2018-08-03T04:43:17.713Z,26.70
2018-08-03T04:45:59.486Z,26.70
2018-08-03T04:48:41.195Z,26.70
2018-08-03T04:51:23.186Z,26.70
2018-08-03T04:54:05.013Z,26.70
2018-08-03T04:56:46.843Z,26.70
2018-08-03T04:59:28.129Z,26.70
2018-08-03T05:02:10.438Z,26.70
2018-08-03T05:04:52.239Z,26.70
2018-08-03T05:07:33.406Z,26.70
2018-08-03T05:10:14.979Z,26.70
2018-08-03T05:12:55.801Z,26.70
2018-08-03T05:15:36.576Z,26.80
2018-08-03T05:18:18.125Z,26.80
2018-08-03T05:23:40.465Z,26.80
2018-08-03T05:26:21.378Z,26.80
2018-08-03T05:29:02.584Z,26.80
2018-08-03T05:31:43.935Z,26.80
2018-08-03T05:34:24.845Z,26.80
2018-08-03T05:37:06.731Z,26.90
2018-08-03T05:39:48.558Z,26.90
2018-08-03T05:42:30.375Z,27.00
2018-08-03T05:45:11.881Z,27.00
2018-08-03T05:47:53.499Z,27.10
2018-08-03T05:50:34.885Z,27.20
2018-08-03T05:53:16.224Z,27.20
2018-08-03T05:55:57.995Z,27.30
2018-08-03T05:58:39.682Z,27.30
2018-08-03T06:01:21.525Z,27.40
2018-08-03T06:04:03.980Z,27.50
2018-08-03T06:06:45.711Z,27.60
2018-08-03T06:09:27.488Z,27.60
2018-08-03T06:12:09.233Z,27.70
2018-08-03T06:14:52.009Z,27.80
2018-08-03T06:17:34.622Z,28.00
2018-08-03T06:20:16.227Z,28.00
2018-08-03T06:22:57.913Z,28.10
2018-08-03T06:25:39.772Z,28.20
2018-08-03T06:28:21.493Z,28.30
2018-08-03T06:31:03.291Z,28.40
2018-08-03T06:33:44.906Z,28.50
2018-08-03T06:36:25.802Z,28.70
2018-08-03T06:39:06.524Z,28.80
2018-08-03T06:41:47.237Z,28.90
2018-08-03T06:44:28.110Z,28.90
2018-08-03T06:47:09.369Z,29.00
2018-08-03T06:49:51.751Z,29.00
2018-08-03T06:52:32.686Z,29.00
2018-08-03T06:55:14.307Z,29.00
2018-08-03T06:57:55.094Z,29.20
2018-08-03T07:00:36.650Z,29.20
2018-08-03T07:03:18.115Z,29.20
2018-08-03T07:05:59.304Z,29.30
2018-08-03T07:08:40.303Z,29.30
2018-08-03T07:11:21.849Z,29.40
2018-08-03T07:14:02.717Z,29.50
2018-08-03T07:16:44.369Z,29.40
2018-08-03T07:19:25.895Z,29.40
2018-08-03T07:22:07.577Z,29.30
2018-08-03T07:24:48.597Z,29.40
2018-08-03T07:27:29.226Z,29.40
2018-08-03T07:30:09.908Z,29.40
2018-08-03T07:32:51.584Z,29.50
2018-08-03T07:35:32.431Z,29.60
2018-08-03T07:40:55.564Z,29.70
2018-08-03T07:43:36.773Z,29.60
2018-08-03T07:46:18.503Z,29.50
2018-08-03T07:49:00.156Z,29.50
2018-08-03T07:51:41.781Z,29.60
2018-08-03T07:54:22.429Z,29.40
2018-08-03T07:57:03.363Z,29.50
2018-08-03T07:59:44.526Z,29.50
2018-08-03T08:02:25.324Z,29.50
2018-08-03T08:05:06.534Z,29.50
2018-08-03T08:07:47.805Z,29.50
2018-08-03T08:10:28.520Z,29.40
2018-08-03T08:13:10.082Z,29.40
2018-08-03T08:15:50.805Z,29.50
2018-08-03T08:18:32.495Z,29.60
2018-08-03T08:21:14.086Z,29.60
2018-08-03T08:23:54.867Z,29.70
2018-08-03T08:26:36.498Z,29.60
2018-08-03T08:29:17.261Z,29.70
2018-08-03T08:31:58.341Z,29.70
2018-08-03T08:34:39.797Z,29.80
2018-08-03T08:37:21.486Z,29.90
2018-08-03T08:40:03.244Z,30.00
2018-08-03T08:42:44.839Z,30.10
2018-08-03T08:45:25.568Z,30.10
2018-08-03T08:48:06.280Z,30.30
2018-08-03T08:50:47.961Z,30.40
2018-08-03T08:53:29.500Z,30.50
2018-08-03T08:56:11.269Z,30.60
2018-08-03T08:58:52.882Z,30.80
2018-08-03T09:01:34.419Z,31.00
2018-08-03T09:04:16.049Z,31.00
2018-08-03T09:06:57.848Z,31.10
2018-08-03T09:09:38.549Z,31.20
2018-08-03T09:12:20.295Z,31.40
2018-08-03T09:15:02.023Z,31.60
2018-08-03T09:17:43.749Z,31.80
2018-08-03T09:20:25.313Z,31.90
2018-08-03T09:23:06.891Z,32.00
2018-08-03T09:25:48.650Z,32.10
2018-08-03T09:28:30.597Z,32.30
2018-08-03T09:31:11.335Z,32.20
2018-08-03T09:33:53.000Z,32.20
2018-08-03T09:36:34.688Z,32.30
2018-08-03T09:39:15.842Z,32.10
2018-08-03T09:47:20.757Z,32.00
2018-08-03T09:50:01.511Z,32.10
2018-08-03T09:52:42.232Z,32.40
2018-08-03T09:55:23.196Z,32.60
2018-08-03T09:58:04.584Z,32.60
2018-08-03T10:00:50.428Z,32.70
2018-08-03T10:03:31.969Z,32.80
2018-08-03T10:06:13.873Z,32.80
2018-08-03T10:08:55.754Z,33.00
2018-08-03T10:11:37.059Z,33.10
2018-08-03T10:17:25.495Z,33.30
2018-08-03T10:20:06.275Z,33.30
2018-08-03T10:22:47.289Z,33.30
2018-08-03T10:25:28.271Z,33.30
2018-08-03T10:28:09.338Z,33.30
2018-08-03T10:30:50.208Z,33.30
2018-08-03T10:33:31.077Z,33.40
2018-08-03T10:36:12.029Z,33.30
2018-08-03T10:38:53.288Z,33.30
2018-08-03T10:41:34.803Z,33.40
2018-08-03T10:44:15.943Z,33.50
2018-08-03T10:46:56.824Z,33.30
2018-08-03T10:49:41.623Z,33.60
2018-08-03T10:52:23.102Z,33.60
2018-08-03T10:55:03.831Z,33.50
2018-08-03T10:57:45.686Z,33.40
2018-08-03T11:00:26.487Z,32.90
2018-08-03T11:03:08.996Z,32.90
2018-08-03T11:05:50.099Z,32.70
2018-08-03T11:08:30.883Z,32.50
2018-08-03T11:11:11.682Z,32.60
2018-08-03T11:13:52.371Z,32.70
2018-08-03T11:16:34.055Z,32.60
2018-08-03T11:19:14.800Z,32.70
2018-08-03T11:21:55.663Z,32.70
2018-08-03T11:24:37.341Z,32.70
2018-08-03T11:27:35.105Z,32.60
2018-08-03T11:30:15.843Z,32.80
2018-08-03T11:32:56.519Z,32.60
2018-08-03T11:35:38.241Z,32.80
2018-08-03T11:38:19.109Z,32.80
2018-08-03T11:41:00.856Z,32.90
2018-08-03T11:43:42.618Z,33.20
2018-08-03T11:46:24.238Z,33.30
2018-08-03T11:49:05.819Z,33.30
2018-08-03T11:51:46.656Z,33.30
2018-08-03T11:54:28.217Z,33.30
2018-08-03T11:57:11.187Z,33.30
2018-08-03T12:03:04.926Z,33.40
2018-08-03T12:05:47.006Z,33.40
2018-08-03T12:08:27.940Z,33.50
2018-08-03T12:11:08.900Z,33.50
2018-08-03T12:13:50.562Z,33.50
2018-08-03T12:16:32.110Z,33.40
2018-08-03T12:19:12.820Z,33.10
2018-08-03T12:21:53.543Z,33.00
2018-08-03T12:24:34.909Z,33.00
2018-08-03T12:27:16.711Z,33.00
2018-08-03T12:29:57.836Z,32.90
2018-08-03T12:32:39.205Z,32.90
2018-08-03T12:35:20.924Z,33.10
2018-08-03T12:38:02.598Z,33.20
2018-08-03T12:40:43.654Z,33.10
2018-08-03T12:43:25.391Z,33.00
2018-08-03T12:46:06.248Z,32.90
2018-08-03T12:48:47.817Z,32.80
2018-08-03T12:51:28.629Z,32.40
2018-08-03T12:54:10.337Z,32.50
2018-08-03T12:56:51.922Z,32.50
2018-08-03T12:59:32.667Z,32.40
2018-08-03T13:02:14.325Z,32.50
2018-08-03T13:04:55.603Z,32.70
2018-08-03T13:07:37.217Z,32.70
2018-08-03T13:10:18.970Z,32.70
2018-08-03T13:13:00.296Z,32.90
2018-08-03T13:15:41.790Z,33.00
2018-08-03T13:18:23.549Z,33.10
2018-08-03T13:21:05.001Z,33.20
2018-08-03T13:23:46.605Z,33.40
2018-08-03T13:26:27.790Z,33.70
2018-08-03T13:29:09.103Z,33.60
2018-08-03T13:31:51.038Z,33.30
2018-08-03T13:34:32.705Z,33.20
2018-08-03T13:37:14.260Z,33.20
2018-08-03T13:39:54.993Z,33.50
2018-08-03T13:42:35.884Z,33.70
2018-08-03T13:45:16.566Z,33.80
2018-08-03T13:48:11.238Z,33.90
2018-08-03T13:50:52.961Z,34.00
2018-08-03T13:53:37.020Z,34.20
2018-08-03T13:56:22.773Z,34.20
2018-08-03T13:59:04.242Z,34.30
2018-08-03T14:01:46.130Z,34.00
2018-08-03T14:04:27.779Z,33.80
2018-08-03T14:07:08.686Z,33.60
2018-08-03T14:09:50.410Z,33.50
2018-08-03T14:12:32.053Z,33.50
2018-08-03T14:15:13.343Z,33.30
2018-08-03T14:17:54.752Z,33.20
2018-08-03T14:20:35.388Z,33.20
2018-08-03T14:23:17.099Z,33.10
2018-08-03T14:25:58.785Z,33.20
2018-08-03T14:28:40.370Z,33.40
2018-08-03T14:31:21.409Z,33.50
2018-08-03T14:34:02.887Z,33.40
2018-08-03T14:36:43.658Z,33.50
2018-08-03T14:39:24.508Z,33.80
2018-08-03T14:42:05.961Z,34.00
2018-08-03T14:44:46.858Z,34.10
2018-08-03T14:47:29.004Z,34.20
2018-08-03T14:50:10.179Z,34.10
2018-08-03T14:52:51.180Z,34.10
2018-08-03T14:55:32.607Z,34.30
2018-08-03T14:58:13.724Z,34.60
2018-08-03T15:00:55.194Z,34.60
2018-08-03T15:03:36.877Z,34.60
2018-08-03T15:06:18.767Z,34.70
2018-08-03T15:09:05.847Z,34.60
2018-08-03T15:11:47.045Z,34.60
2018-08-03T15:14:28.834Z,34.40
2018-08-03T15:20:22.558Z,34.20
2018-08-03T15:23:11.899Z,34.40
2018-08-03T15:25:54.361Z,34.30
2018-08-03T15:28:35.431Z,34.30
2018-08-03T15:31:16.835Z,34.30
2018-08-03T15:33:59.581Z,34.50
2018-08-03T15:36:41.057Z,34.50
2018-08-03T15:39:21.824Z,34.40
2018-08-03T15:42:03.416Z,34.50
2018-08-03T15:44:44.256Z,34.60
2018-08-03T15:47:25.092Z,34.60
2018-08-03T15:52:48.819Z,34.70
2018-08-03T15:55:30.196Z,34.60
2018-08-03T15:58:11.100Z,33.70
2018-08-03T16:00:52.730Z,33.80
2018-08-03T16:03:34.337Z,34.00
2018-08-03T16:06:15.143Z,34.10
2018-08-03T16:08:55.947Z,33.90
2018-08-03T16:11:37.649Z,34.00
2018-08-03T16:14:19.272Z,34.10
2018-08-03T16:17:00.957Z,34.10
2018-08-03T16:19:42.589Z,34.10
2018-08-03T16:22:24.311Z,34.10
2018-08-03T16:25:05.883Z,34.10
2018-08-03T16:27:47.460Z,34.20
2018-08-03T16:30:28.340Z,34.10
2018-08-03T16:33:10.168Z,34.10
2018-08-03T16:35:51.800Z,34.00
2018-08-03T16:38:33.534Z,33.90
2018-08-03T16:41:14.995Z,33.70
2018-08-03T16:43:56.628Z,33.60
2018-08-03T16:46:38.526Z,33.40
2018-08-03T16:49:20.288Z,33.40
2018-08-03T16:52:01.917Z,33.30
2018-08-03T16:54:42.673Z,33.30
2018-08-03T16:57:24.374Z,33.20
2018-08-03T17:00:06.136Z,33.10
2018-08-03T17:02:48.014Z,33.10
2018-08-03T17:05:29.542Z,33.00
2018-08-03T17:08:11.054Z,32.80
2018-08-03T17:10:51.964Z,32.90
2018-08-03T17:13:49.837Z,32.80
2018-08-03T17:16:31.284Z,32.70
2018-08-03T17:19:13.349Z,32.60
2018-08-03T17:21:54.898Z,32.50
2018-08-03T17:24:37.027Z,32.30
2018-08-03T17:30:26.164Z,32.10
2018-08-03T17:33:08.274Z,32.00
2018-08-03T17:35:49.437Z,31.90
2018-08-03T17:38:30.981Z,31.90
2018-08-03T17:41:11.844Z,31.90
2018-08-03T17:44:05.607Z,31.80
2018-08-03T17:46:47.436Z,31.80
2018-08-03T17:49:28.180Z,31.80
2018-08-03T17:52:09.956Z,31.80
2018-08-03T17:54:50.710Z,31.80
2018-08-03T17:57:31.917Z,31.70
2018-08-03T18:00:14.088Z,31.70
2018-08-03T18:02:56.001Z,31.70
2018-08-03T18:05:36.969Z,31.70
2018-08-03T18:08:17.807Z,31.70
2018-08-03T18:10:59.757Z,31.60
2018-08-03T18:13:41.346Z,31.60
2018-08-03T18:16:22.295Z,31.60
2018-08-03T18:22:11.566Z,31.60
2018-08-03T18:24:53.376Z,31.40
2018-08-03T18:27:34.892Z,31.40
2018-08-03T18:30:16.553Z,31.30
2018-08-03T18:33:14.271Z,31.30
2018-08-03T18:35:55.135Z,31.20
2018-08-03T18:38:36.577Z,31.20
2018-08-03T18:41:19.230Z,31.10
2018-08-03T18:44:00.045Z,31.10
2018-08-03T18:46:41.117Z,31.10
2018-08-03T18:49:22.744Z,31.10
2018-08-03T18:52:21.479Z,31.10
2018-08-03T18:55:03.035Z,31.00
2018-08-03T18:57:44.555Z,31.00
2018-08-03T19:00:26.316Z,31.00
2018-08-03T19:03:08.382Z,30.90
2018-08-03T19:05:50.328Z,30.90
2018-08-03T19:08:31.693Z,30.80
2018-08-03T19:11:13.210Z,30.80
2018-08-03T19:13:54.111Z,30.70
2018-08-03T19:16:35.787Z,30.70
2018-08-03T19:19:17.302Z,30.70
2018-08-03T19:21:58.479Z,30.60
2018-08-03T19:24:46.949Z,30.60
2018-08-03T19:27:28.517Z,30.50
2018-08-03T19:30:10.261Z,30.40
2018-08-03T19:32:51.968Z,30.40
2018-08-03T19:35:33.627Z,30.30
2018-08-03T19:38:16.238Z,30.20
2018-08-03T19:44:04.892Z,30.20
2018-08-03T19:46:46.526Z,30.10
2018-08-03T19:49:28.245Z,30.10
2018-08-03T19:52:12.338Z,30.00
2018-08-03T19:54:54.134Z,30.00
2018-08-03T19:57:35.669Z,29.90
2018-08-03T20:00:17.156Z,29.90
2018-08-03T20:02:59.769Z,29.80
2018-08-03T20:05:41.355Z,29.80
2018-08-03T20:08:23.190Z,29.80
2018-08-03T20:11:25.019Z,29.80
2018-08-03T20:14:06.583Z,29.70
2018-08-03T20:16:48.692Z,29.70
2018-08-03T20:19:30.338Z,29.70
2018-08-03T20:22:11.560Z,29.60
2018-08-03T20:24:53.131Z,29.60
2018-08-03T20:27:33.980Z,29.60
2018-08-03T20:30:16.020Z,29.50
2018-08-03T20:32:57.202Z,29.50
2018-08-03T20:41:52.588Z,29.50
2018-08-03T20:44:34.274Z,29.40
2018-08-03T20:47:15.940Z,29.40
2018-08-03T20:50:02.604Z,29.30
2018-08-03T20:52:44.525Z,29.30
2018-08-03T20:55:26.087Z,29.30
2018-08-03T20:58:07.930Z,29.30
2018-08-03T21:00:49.315Z,29.30
2018-08-03T21:03:30.383Z,29.30
2018-08-03T21:06:12.057Z,29.30
2018-08-03T21:08:53.813Z,29.30
2018-08-03T21:11:35.980Z,29.30
2018-08-03T21:14:18.147Z,29.30
2018-08-03T21:16:59.991Z,29.30
2018-08-03T21:19:40.947Z,29.40
2018-08-03T21:22:23.632Z,29.40
2018-08-03T21:25:20.261Z,29.40
2018-08-03T21:28:02.778Z,29.40
2018-08-03T21:30:44.284Z,29.40
2018-08-03T21:33:25.534Z,29.40
2018-08-03T21:36:08.384Z,29.40
2018-08-03T21:38:50.228Z,29.50
2018-08-03T21:41:31.681Z,29.40
2018-08-03T21:44:13.353Z,29.40
2018-08-03T21:46:54.056Z,29.40
2018-08-03T21:49:35.647Z,29.40
2018-08-03T21:52:17.246Z,29.40
2018-08-03T21:54:58.946Z,29.50
2018-08-03T21:57:40.918Z,29.50
2018-08-03T22:00:23.301Z,29.60
2018-08-03T22:03:05.516Z,29.60
2018-08-03T22:05:50.964Z,29.60
2018-08-03T22:08:34.559Z,29.70
2018-08-03T22:11:19.175Z,29.70
2018-08-03T22:14:10.176Z,29.70
2018-08-03T22:16:51.306Z,29.70
2018-08-03T22:22:14.706Z,29.80
2018-08-03T22:24:56.111Z,29.80
2018-08-03T22:27:37.753Z,29.80
2018-08-03T22:30:19.299Z,29.80
2018-08-03T22:33:01.579Z,29.80
2018-08-03T22:35:42.804Z,29.80
2018-08-03T22:38:34.260Z,29.80
2018-08-03T22:41:15.064Z,29.80
2018-08-03T22:43:55.968Z,29.80
2018-08-03T22:46:36.699Z,29.80
2018-08-03T22:49:18.277Z,29.80
2018-08-03T22:51:59.736Z,29.80
2018-08-03T22:54:40.459Z,29.80
2018-08-03T22:57:21.261Z,29.80
2018-08-03T23:00:03.414Z,29.80
2018-08-03T23:02:44.671Z,29.80
2018-08-03T23:05:27.134Z,29.80
2018-08-03T23:08:08.262Z,29.80
2018-08-03T23:10:49.828Z,29.80
2018-08-03T23:13:31.144Z,29.70
2018-08-03T23:16:12.508Z,29.70
2018-08-03T23:18:53.752Z,29.70
2018-08-03T23:21:35.452Z,29.70
2018-08-03T23:24:16.570Z,29.70
2018-08-03T23:26:58.554Z,29.70
2018-08-03T23:29:50.111Z,29.80
2018-08-03T23:32:31.570Z,29.70
2018-08-03T23:35:12.870Z,29.60
2018-08-03T23:37:55.400Z,29.50
2018-08-03T23:49:58.377Z,29.20
2018-08-03T23:52:40.064Z,29.20
2018-08-03T23:55:21.666Z,29.10
2018-08-03T23:58:03.349Z,29.10
